Time;durP1;ratioP1;P1;durP2;ratioP2;P2;SDS_P1;SDS_P2;PMS_P1;PMS_P2;Temp;Humidity;BMP_temperature;BMP_pressure;BME280_temperature;BME280_humidity;BME280_pressure;Samples;Min_cycle;Max_cycle;Signal;HPM_P1;HPM_P2
2020/12/21 00:00:13;;;;;;;15.32;10.10;;;;;;;7.63;63.08;94863.97;4981165;28;20050;-78
2020/12/21 00:02:39;;;;;;;15.88;10.73;;;;;;;7.63;63.03;94863.16;4980834;28;20042;-78
2020/12/21 00:05:06;;;;;;;17.63;10.77;;;;;;;7.67;63.04;94864.28;4981609;28;20030;-78
2020/12/21 00:07:32;;;;;;;17.80;11.20;;;;;;;7.72;62.93;94861.72;4961771;28;20050;-78
2020/12/21 00:09:57;;;;;;;15.88;10.25;;;;;;;7.70;62.79;94858.53;4974840;28;20125;-78
2020/12/21 00:12:23;;;;;;;16.17;10.85;;;;;;;7.75;63.16;94869.13;4982154;28;20095;-78
2020/12/21 00:14:48;;;;;;;16.73;11.05;;;;;;;7.75;63.33;94862.03;4981086;28;20038;-78
2020/12/21 00:17:14;;;;;;;16.13;10.60;;;;;;;7.75;63.08;94866.47;4980297;28;20105;-78
2020/12/21 00:19:39;;;;;;;16.65;10.32;;;;;;;7.75;62.95;94866.47;4983504;28;20031;-78
2020/12/21 00:22:05;;;;;;;16.75;11.57;;;;;;;7.75;63.42;94867.28;4975898;28;20062;-78
2020/12/21 00:24:30;;;;;;;17.50;11.55;;;;;;;7.74;64.09;94868.31;4979803;28;20045;-78
2020/12/21 00:26:56;;;;;;;17.45;11.68;;;;;;;7.71;64.28;94873.28;4982328;28;20046;-78
2020/12/21 00:29:21;;;;;;;16.58;10.48;;;;;;;7.71;63.93;94870.66;4980972;28;20483;-78
2020/12/21 00:31:47;;;;;;;19.58;11.90;;;;;;;7.75;63.53;94877.00;4981496;28;24076;-78
2020/12/21 00:34:14;;;;;;;19.70;11.40;;;;;;;7.68;63.23;94876.38;4965380;28;20047;-78
2020/12/21 00:36:40;;;;;;;14.45;9.80;;;;;;;7.63;63.24;94874.47;4971714;28;20030;-78
2020/12/21 00:39:06;;;;;;;18.05;10.70;;;;;;;7.68;62.99;94874.53;4980881;28;20034;-78
2020/12/21 00:41:32;;;;;;;17.05;10.48;;;;;;;7.75;62.77;94884.91;4981347;28;20028;-78
2020/12/21 00:43:58;;;;;;;16.27;10.32;;;;;;;7.78;62.46;94890.47;4982521;28;20038;-78
2020/12/21 00:46:27;;;;;;;18.85;11.20;;;;;;;7.77;62.41;94886.22;4965030;28;20408;-79
2020/12/21 00:48:54;;;;;;;19.98;11.80;;;;;;;7.76;62.53;94883.88;4962684;28;20078;-78
2020/12/21 00:51:20;;;;;;;16.52;10.98;;;;;;;7.73;62.97;94879.88;4964653;28;20069;-78
2020/12/21 00:53:47;;;;;;;18.50;12.27;;;;;;;7.75;62.79;94882.28;4984007;28;20050;-78
2020/12/21 00:56:12;;;;;;;14.68;9.80;;;;;;;7.71;62.65;94875.91;4986034;28;20022;-78
2020/12/21 00:58:42;;;;;;;16.85;11.10;;;;;;;7.74;62.68;94876.22;5000022;28;20058;-78
2020/12/21 01:01:14;;;;;;;16.90;11.77;;;;;;;7.69;62.72;94877.97;4984928;28;20042;-78
2020/12/21 01:03:39;;;;;;;16.58;10.10;;;;;;;7.61;62.88;94875.78;4983921;28;20055;-78
2020/12/21 01:06:05;;;;;;;16.50;10.68;;;;;;;7.72;62.41;94886.16;4982776;28;20113;-78
2020/12/21 01:08:31;;;;;;;17.20;11.05;;;;;;;7.77;62.43;94886.22;4984692;28;20026;-78
2020/12/21 01:10:56;;;;;;;17.85;11.30;;;;;;;7.76;62.37;94879.41;4987708;28;20026;-78
2020/12/21 01:13:22;;;;;;;14.18;9.48;;;;;;;7.65;62.09;94861.09;4986472;28;20050;-78
2020/12/21 01:15:48;;;;;;;16.33;10.15;;;;;;;7.78;62.28;94887.03;4986897;28;20117;-77
2020/12/21 01:18:13;;;;;;;15.30;9.95;;;;;;;7.75;62.15;94879.63;4985285;28;20065;-78
2020/12/21 01:20:42;;;;;;;15.80;9.93;;;;;;;7.82;61.98;94878.41;4984920;28;20158;-78
2020/12/21 01:23:07;;;;;;;17.58;10.80;;;;;;;7.87;61.70;94882.16;4984591;28;20089;-78
2020/12/21 01:25:33;;;;;;;15.43;10.43;;;;;;;7.89;61.71;94877.44;4984086;28;20126;-78
2020/12/21 01:28:04;;;;;;;18.00;10.63;;;;;;;7.87;61.74;94876.91;4985834;28;20046;-78
2020/12/21 01:30:30;;;;;;;15.10;10.07;;;;;;;7.91;61.99;94878.78;4980849;28;20054;-79
2020/12/21 01:32:55;;;;;;;15.57;9.55;;;;;;;7.91;61.79;94881.44;4978629;28;20050;-79
2020/12/21 01:35:21;;;;;;;12.25;8.90;;;;;;;7.89;61.81;94878.22;4966823;28;20519;-79
2020/12/21 01:37:47;;;;;;;14.48;9.27;;;;;;;7.91;62.04;94884.06;4994334;28;20023;-79
2020/12/21 01:40:19;;;;;;;19.48;12.00;;;;;;;7.93;62.02;94878.53;4996894;28;20054;-79
2020/12/21 01:42:46;;;;;;;14.98;9.90;;;;;;;7.91;62.03;94876.16;4970313;28;20045;-79
2020/12/21 01:45:12;;;;;;;17.27;10.13;;;;;;;7.84;62.03;94870.28;4989868;28;20050;-78
2020/12/21 01:47:38;;;;;;;13.75;9.07;;;;;;;7.94;61.94;94874.88;4989060;28;20410;-79
2020/12/21 01:50:05;;;;;;;14.23;9.23;;;;;;;7.97;62.01;94875.16;4995770;28;20084;-79
2020/12/21 01:52:32;;;;;;;14.45;9.52;;;;;;;7.96;61.99;94873.59;4953558;28;20049;-79
2020/12/21 01:55:02;;;;;;;14.32;9.50;;;;;;;7.99;61.73;94881.00;4966214;28;20134;-79
2020/12/21 01:57:31;;;;;;;13.05;8.65;;;;;;;7.97;61.63;94879.63;4976782;28;20046;-80
2020/12/21 01:59:57;;;;;;;13.43;9.35;;;;;;;7.96;61.52;94868.31;5007083;28;20074;-78
2020/12/21 02:02:22;;;;;;;16.02;8.80;;;;;;;8.00;61.72;94869.41;4997642;28;20081;-78
2020/12/21 02:04:48;;;;;;;13.90;9.77;;;;;;;8.00;61.77;94864.16;4985099;28;20061;-78
2020/12/21 02:07:14;;;;;;;12.40;8.85;;;;;;;7.99;61.80;94873.09;4969134;28;20057;-78
2020/12/21 02:09:42;;;;;;;14.20;9.85;;;;;;;7.99;61.76;94869.66;4963161;28;20042;-78
2020/12/21 02:12:11;;;;;;;14.85;8.60;;;;;;;7.98;61.79;94874.13;4964519;28;20417;-78
2020/12/21 02:14:37;;;;;;;12.65;9.15;;;;;;;7.89;61.46;94865.06;4968998;28;20458;-78
2020/12/21 02:17:03;;;;;;;14.32;9.05;;;;;;;7.98;61.14;94876.75;4985958;28;20486;-78
2020/12/21 02:19:30;;;;;;;13.13;8.65;;;;;;;7.98;61.19;94874.13;4967780;28;20041;-78
2020/12/21 02:21:56;;;;;;;13.32;9.20;;;;;;;7.91;60.95;94868.28;4978166;28;20058;-78
2020/12/21 02:24:22;;;;;;;14.18;9.90;;;;;;;7.94;61.07;94870.41;4983817;28;20069;-78
2020/12/21 02:26:47;;;;;;;23.38;13.00;;;;;;;7.94;61.37;94859.88;4985155;28;20048;-78
2020/12/21 02:29:13;;;;;;;16.42;11.07;;;;;;;7.92;61.71;94840.88;4983313;28;20480;-79
2020/12/21 02:31:38;;;;;;;14.35;9.75;;;;;;;7.96;61.73;94857.00;4985323;28;20014;-78
2020/12/21 02:34:04;;;;;;;14.63;9.52;;;;;;;7.91;61.74;94855.09;4985246;28;20066;-79
2020/12/21 02:36:33;;;;;;;14.80;10.45;;;;;;;7.95;61.82;94858.84;4983412;28;20034;-78
2020/12/21 02:38:58;;;;;;;14.02;9.15;;;;;;;7.88;61.55;94855.59;4976929;28;20051;-78
2020/12/21 02:41:23;;;;;;;14.60;9.85;;;;;;;7.91;61.38;94856.94;4964949;28;20101;-78
2020/12/21 02:43:49;;;;;;;13.27;8.98;;;;;;;7.96;61.62;94862.25;4983832;28;20530;-78
2020/12/21 02:46:20;;;;;;;16.15;10.30;;;;;;;7.99;61.40;94864.41;4984974;28;20074;-78
2020/12/21 02:48:49;;;;;;;17.80;11.88;;;;;;;7.88;61.43;94844.25;4996888;28;20529;-79
2020/12/21 02:51:16;;;;;;;14.70;10.20;;;;;;;7.83;61.48;94842.38;4997036;28;20049;-79
2020/12/21 02:53:41;;;;;;;11.93;9.15;;;;;;;7.97;61.65;94858.56;4980051;28;20042;-79
2020/12/21 02:56:07;;;;;;;13.70;8.48;;;;;;;7.88;61.51;94834.53;4966030;28;20074;-79
2020/12/21 02:58:32;;;;;;;13.98;8.95;;;;;;;7.95;61.38;94855.41;4982162;28;20030;-79
2020/12/21 03:00:57;;;;;;;14.55;9.55;;;;;;;7.93;61.46;94855.63;4983999;28;20058;-79
2020/12/21 03:03:23;;;;;;;14.23;9.00;;;;;;;7.86;61.35;94852.41;4997142;28;20124;-79
2020/12/21 03:05:48;;;;;;;16.80;10.13;;;;;;;7.74;61.37;94836.75;4984194;28;20535;-79
2020/12/21 03:08:16;;;;;;;18.50;10.70;;;;;;;7.92;61.32;94861.94;4963570;28;20054;-79
2020/12/21 03:10:42;;;;;;;13.60;10.13;;;;;;;7.94;62.15;94869.59;4983582;28;20026;-79
2020/12/21 03:13:08;;;;;;;16.48;10.82;;;;;;;7.88;61.87;94868.75;4983496;28;20087;-78
2020/12/21 03:15:33;;;;;;;15.07;10.43;;;;;;;7.91;62.00;94873.53;4984561;28;20038;-79
2020/12/21 03:17:59;;;;;;;19.33;12.05;;;;;;;7.90;62.19;94874.56;4982736;28;20038;-79
2020/12/21 03:20:24;;;;;;;21.50;12.63;;;;;;;7.90;62.38;94879.84;4983252;28;20380;-79
2020/12/21 03:22:50;;;;;;;16.77;11.35;;;;;;;7.89;62.46;94870.34;4983846;28;20629;-79
2020/12/21 03:25:16;;;;;;;14.48;10.77;;;;;;;7.93;62.35;94871.44;4986118;28;20591;-79
2020/12/21 03:27:42;;;;;;;16.60;10.57;;;;;;;7.97;62.28;94869.09;4978219;28;20046;-79
2020/12/21 03:30:08;;;;;;;16.50;11.02;;;;;;;7.98;62.27;94866.22;4970525;28;20092;-79
2020/12/21 03:32:35;;;;;;;17.50;9.98;;;;;;;7.96;61.89;94857.00;4983428;28;20380;-79
2020/12/21 03:35:01;;;;;;;22.25;10.38;;;;;;;7.92;61.86;94855.88;5001383;28;20026;-78
2020/12/21 03:37:26;;;;;;;16.85;11.02;;;;;;;7.89;61.30;94849.28;4981292;28;20035;-78
2020/12/21 03:39:52;;;;;;;18.48;11.43;;;;;;;7.98;61.02;94854.91;4992967;28;20058;-78
2020/12/21 03:42:17;;;;;;;17.58;11.38;;;;;;;7.98;61.19;94855.69;4968821;28;20058;-78
2020/12/21 03:44:43;;;;;;;18.60;12.60;;;;;;;7.96;61.55;94857.00;4983782;28;20133;-78
2020/12/21 03:47:09;;;;;;;25.48;20.60;;;;;;;7.96;61.31;94857.78;4983257;28;20026;-78
2020/12/21 03:49:34;;;;;;;18.75;13.38;;;;;;;7.98;61.26;94853.06;4963021;28;20046;-79
2020/12/21 03:52:00;;;;;;;19.23;12.18;;;;;;;7.93;61.73;94852.22;4962271;28;20495;-78
2020/12/21 03:54:26;;;;;;;18.70;12.55;;;;;;;7.96;61.72;94857.00;4972822;28;20040;-78
2020/12/21 03:56:51;;;;;;;16.90;11.95;;;;;;;8.02;61.78;94858.63;4977450;28;20066;-78
2020/12/21 03:59:17;;;;;;;16.48;11.60;;;;;;;7.99;61.79;94854.66;4961255;28;20113;-79
2020/12/21 04:01:42;;;;;;;18.45;10.93;;;;;;;7.97;61.54;94848.84;4962985;28;20035;-78
2020/12/21 04:04:08;;;;;;;15.35;10.85;;;;;;;7.98;61.47;94853.06;4978328;28;20042;-78
2020/12/21 04:06:34;;;;;;;16.52;10.18;;;;;;;7.97;61.73;94848.84;4970884;28;20057;-78
2020/12/21 04:09:00;;;;;;;17.58;10.70;;;;;;;8.00;61.45;94861.53;4967977;28;20097;-78
2020/12/21 04:11:25;;;;;;;16.73;11.15;;;;;;;8.02;61.68;94861.25;4980692;28;20814;-78
2020/12/21 04:13:51;;;;;;;15.93;10.60;;;;;;;7.99;61.35;94852.03;4981675;28;20809;-78
2020/12/21 04:16:16;;;;;;;16.10;10.32;;;;;;;7.99;61.48;94856.50;4980772;28;20046;-78
2020/12/21 04:18:42;;;;;;;18.75;11.55;;;;;;;8.04;61.16;94860.00;4981351;28;20628;-78
2020/12/21 04:21:14;;;;;;;21.70;11.93;;;;;;;8.03;61.40;94853.13;4981494;28;20092;-79
2020/12/21 04:23:40;;;;;;;19.60;11.23;;;;;;;8.04;61.45;94849.47;4983160;28;20049;-78
2020/12/21 04:26:07;;;;;;;18.27;11.70;;;;;;;8.01;61.42;94838.63;4987237;28;20022;-78
2020/12/21 04:28:33;;;;;;;17.90;11.82;;;;;;;8.03;61.40;94841.78;4999119;28;20052;-78
2020/12/21 04:31:06;;;;;;;15.88;11.07;;;;;;;8.05;61.60;94851.06;4987184;28;20034;-78
2020/12/21 04:33:32;;;;;;;16.02;10.75;;;;;;;8.04;61.66;94849.47;4984307;28;20125;-79
2020/12/21 04:35:57;;;;;;;20.30;11.95;;;;;;;8.03;61.60;94845.22;4986589;28;20517;-79
2020/12/21 04:38:23;;;;;;;16.98;10.38;;;;;;;8.02;61.92;94845.47;4985617;28;20030;-78
2020/12/21 04:40:56;;;;;;;16.90;10.65;;;;;;;8.05;61.87;94855.53;5001902;28;20014;-78
2020/12/21 04:43:22;;;;;;;17.92;11.02;;;;;;;8.09;62.21;94851.34;5000595;28;20046;-78
2020/12/21 04:46:01;;;;;;;16.33;9.85;;;;;;;8.04;62.16;94857.34;4984021;28;20050;-78
2020/12/21 04:48:28;;;;;;;19.50;10.82;;;;;;;7.98;62.23;94850.44;4979625;28;20043;-78
2020/12/21 04:50:54;;;;;;;18.65;11.25;;;;;;;8.00;62.32;94851.00;4966347;28;20419;-78
2020/12/21 04:53:23;;;;;;;20.73;10.98;;;;;;;8.04;62.30;94860.00;4979837;28;20023;-78
2020/12/21 04:55:49;;;;;;;18.75;12.52;;;;;;;7.98;62.54;94849.63;4986452;28;20030;-78
2020/12/21 04:58:16;;;;;;;18.88;10.93;;;;;;;7.95;62.39;94850.94;4985616;28;20093;-78
2020/12/21 05:00:42;;;;;;;18.00;10.95;;;;;;;7.96;62.60;94842.00;4983708;28;20092;-78
2020/12/21 05:03:08;;;;;;;18.80;11.45;;;;;;;7.98;62.80;94855.69;4984082;28;20038;-78
2020/12/21 05:05:41;;;;;;;19.08;11.82;;;;;;;7.92;63.17;94854.03;4985160;28;20054;-77
2020/12/21 05:08:24;;;;;;;17.88;11.82;;;;;;;7.93;64.12;94868.81;4988137;28;20061;-78
2020/12/21 05:11:00;;;;;;;19.67;12.00;;;;;;;7.91;64.31;94865.63;4984004;28;20132;-78
2020/12/21 05:13:27;;;;;;;17.75;11.73;;;;;;;7.90;64.17;94869.31;4980638;28;20387;-78
2020/12/21 05:15:56;;;;;;;20.88;12.07;;;;;;;7.93;64.46;94866.16;4965348;28;20031;-78
2020/12/21 05:18:32;;;;;;;24.13;15.02;;;;;;;7.96;64.56;94875.44;4972618;28;20039;-78
2020/12/21 05:21:01;;;;;;;20.98;13.10;;;;;;;7.90;64.39;94869.31;4985271;28;20479;-78
2020/12/21 05:23:28;;;;;;;20.60;12.90;;;;;;;7.83;64.88;94863.41;4982959;28;20085;-78
2020/12/21 05:26:02;;;;;;;29.58;18.88;;;;;;;7.84;65.03;94871.06;4985365;28;20034;-79
2020/12/21 05:28:33;;;;;;;25.23;15.95;;;;;;;7.87;64.91;94875.03;4984577;28;20066;-78
2020/12/21 05:31:01;;;;;;;26.95;16.17;;;;;;;7.83;64.69;94864.22;4983135;28;20074;-78
2020/12/21 05:33:27;;;;;;;30.63;17.88;;;;;;;7.87;64.53;94869.78;4994418;28;20051;-78
2020/12/21 05:35:56;;;;;;;32.00;20.20;;;;;;;7.86;64.31;94862.94;4965149;28;20057;-78
2020/12/21 05:38:26;;;;;;;35.90;21.50;;;;;;;7.89;64.36;94867.69;4967178;28;20033;-78
2020/12/21 05:40:53;;;;;;;30.63;18.52;;;;;;;7.87;64.27;94864.50;4985077;28;20026;-78
2020/12/21 05:43:29;;;;;;;31.48;18.70;;;;;;;7.92;64.48;94866.41;4978175;28;20038;-78
2020/12/21 05:46:05;;;;;;;27.73;16.63;;;;;;;7.90;64.44;94869.31;4983424;28;20046;-78
2020/12/21 05:48:41;;;;;;;25.77;16.23;;;;;;;7.92;64.52;94869.84;4983742;28;20057;-78
2020/12/21 05:51:09;;;;;;;24.17;16.27;;;;;;;7.89;64.37;94862.44;4982865;28;20515;-78
2020/12/21 05:53:40;;;;;;;25.83;13.63;;;;;;;7.95;64.03;94872.00;4982437;28;20141;-78
2020/12/21 05:56:06;;;;;;;23.17;14.05;;;;;;;7.93;64.23;94879.31;4984719;28;20045;-78
2020/12/21 05:58:35;;;;;;;20.63;13.50;;;;;;;7.94;64.02;94878.28;4983976;28;20570;-78
2020/12/21 06:01:02;;;;;;;21.15;13.23;;;;;;;7.92;63.95;94872.47;4984099;28;20088;-78
2020/12/21 06:03:38;;;;;;;20.40;13.48;;;;;;;7.95;63.59;94877.25;4973211;28;20423;-79
2020/12/21 06:06:28;;;;;;;23.98;14.80;;;;;;;7.95;63.31;94877.25;4984947;28;20038;-79
2020/12/21 06:08:56;;;;;;;23.77;13.82;;;;;;;7.97;63.25;94874.34;4978058;28;20042;-78
2020/12/21 06:11:30;;;;;;;25.05;14.00;;;;;;;7.98;63.01;94876.75;4967358;28;20023;-79
2020/12/21 06:14:14;;;;;;;23.77;15.48;;;;;;;7.99;63.17;94875.72;4985753;28;20138;-78
2020/12/21 06:16:40;;;;;;;24.35;13.02;;;;;;;8.04;63.04;94880.25;4996578;28;20671;-78
2020/12/21 06:19:08;;;;;;;21.05;13.75;;;;;;;8.05;62.91;94874.75;4982114;28;20046;-78
2020/12/21 06:21:37;;;;;;;25.10;14.23;;;;;;;8.02;62.75;94867.31;4973866;28;20434;-78
2020/12/21 06:24:14;;;;;;;22.17;13.80;;;;;;;8.06;62.76;94873.69;4988330;28;20038;-78
2020/12/21 06:26:39;;;;;;;24.65;14.63;;;;;;;8.02;63.08;94867.31;4988146;28;20038;-78
2020/12/21 06:29:09;;;;;;;21.52;13.07;;;;;;;8.02;63.05;94866.53;4992347;28;20505;-78
2020/12/21 06:31:41;;;;;;;24.58;13.90;;;;;;;8.03;63.07;94868.91;4983983;28;20053;-78
2020/12/21 06:34:08;;;;;;;23.15;12.63;;;;;;;8.06;62.91;94865.78;4985517;28;20116;-79
2020/12/21 06:36:33;;;;;;;23.05;13.18;;;;;;;8.11;63.08;94876.38;4987271;28;20484;-79
2020/12/21 06:38:59;;;;;;;17.85;11.88;;;;;;;8.11;63.38;94871.09;4986707;28;20104;-79
2020/12/21 06:41:27;;;;;;;21.52;13.93;;;;;;;8.02;62.90;94864.69;4988647;28;20026;-79
2020/12/21 06:43:54;;;;;;;26.23;14.50;;;;;;;8.12;62.72;94872.69;4988315;28;20087;-79
2020/12/21 06:46:20;;;;;;;19.40;13.95;;;;;;;8.16;62.48;94881.69;4971195;28;20042;-79
2020/12/21 06:48:49;;;;;;;22.10;14.18;;;;;;;8.12;62.30;94869.28;4978241;28;20489;-79
2020/12/21 06:51:17;;;;;;;28.20;15.80;;;;;;;8.17;62.51;94878.03;4989124;28;20056;-79
2020/12/21 06:53:56;;;;;;;26.75;15.35;;;;;;;8.22;62.66;94880.72;4970508;28;20069;-79
2020/12/21 06:56:26;;;;;;;26.40;15.15;;;;;;;8.25;62.23;94882.06;4986425;28;20022;-79
2020/12/21 06:58:51;;;;;;;25.42;15.07;;;;;;;8.26;62.18;94881.81;4988346;28;20030;-79
2020/12/21 07:01:17;;;;;;;23.52;14.35;;;;;;;8.27;62.26;94877.34;4985292;28;20057;-79
2020/12/21 07:03:44;;;;;;;23.42;15.15;;;;;;;8.32;62.19;94889.78;4982839;28;20038;-79
2020/12/21 07:06:11;;;;;;;23.58;14.63;;;;;;;8.26;62.33;94871.28;4986849;28;20046;-79
2020/12/21 07:08:36;;;;;;;25.65;17.63;;;;;;;8.26;62.20;94871.28;4984132;28;20133;-78
2020/12/21 07:11:02;;;;;;;30.95;17.23;;;;;;;8.32;61.83;94877.44;4987615;28;20514;-79
2020/12/21 07:13:31;;;;;;;34.33;23.33;;;;;;;8.31;62.10;94875.81;4986206;28;20061;-79
2020/12/21 07:15:56;;;;;;;28.60;18.52;;;;;;;8.27;62.00;94867.59;4985312;28;20042;-79
2020/12/21 07:18:22;;;;;;;32.90;21.55;;;;;;;8.36;62.42;94877.72;4985770;28;20038;-79
2020/12/21 07:20:48;;;;;;;35.30;17.83;;;;;;;8.35;61.92;94884.84;4986301;28;20122;-79
2020/12/21 07:23:13;;;;;;;30.13;16.27;;;;;;;8.27;61.63;94874.69;4984529;28;20022;-79
2020/12/21 07:25:50;;;;;;;27.05;17.88;;;;;;;8.42;61.63;94895.16;4986797;28;20488;-78
2020/12/21 07:28:25;;;;;;;32.13;18.50;;;;;;;8.43;61.37;94899.41;4984976;28;20046;-79
2020/12/21 07:30:51;;;;;;;27.40;18.13;;;;;;;8.45;61.31;94897.31;4979674;28;20081;-79
2020/12/21 07:33:17;;;;;;;29.63;18.58;;;;;;;8.48;61.92;94902.88;4970035;28;20042;-79
2020/12/21 07:35:43;;;;;;;28.95;18.10;;;;;;;8.47;61.57;94900.50;4983841;28;20046;-79
2020/12/21 07:38:13;;;;;;;27.17;17.10;;;;;;;8.36;61.44;94893.53;4984535;28;20176;-79
2020/12/21 07:40:42;;;;;;;35.63;17.27;;;;;;;8.37;61.38;94898.53;4984130;28;20042;-79
2020/12/21 07:43:15;;;;;;;29.67;18.23;;;;;;;8.38;61.00;94900.16;4985393;28;20038;-79
2020/12/21 07:45:41;;;;;;;32.92;18.38;;;;;;;8.47;61.28;94892.59;4977855;28;20031;-79
2020/12/21 07:48:08;;;;;;;29.38;19.25;;;;;;;8.45;61.27;94897.31;4969743;28;20491;-79
2020/12/21 07:50:34;;;;;;;30.95;18.85;;;;;;;8.28;61.78;94882.38;4983778;28;20038;-79
2020/12/21 07:53:02;;;;;;;32.33;19.50;;;;;;;8.38;61.51;94891.44;4984362;28;20026;-79
2020/12/21 07:55:27;;;;;;;36.83;19.30;;;;;;;8.29;61.20;94891.06;4984083;28;20108;-79
2020/12/21 07:57:53;;;;;;;32.65;20.45;;;;;;;8.39;61.03;94893.03;4982989;28;20046;-79
2020/12/21 08:00:18;;;;;;;32.55;17.88;;;;;;;8.44;61.13;94898.38;4983321;28;20051;-79
2020/12/21 08:02:47;;;;;;;40.75;21.45;;;;;;;8.48;61.44;94891.56;4983134;28;20093;-79
2020/12/21 08:05:19;;;;;;;31.80;20.83;;;;;;;8.60;60.60;94894.84;4982808;28;20038;-79
2020/12/21 08:07:45;;;;;;;15.60;9.50;;;;;;;8.58;58.94;94889.81;4986422;28;20625;-79
2020/12/21 08:10:21;;;;;;;16.25;9.77;;;;;;;8.59;57.60;94885.34;4985429;28;20065;-79
2020/12/21 08:12:46;;;;;;;15.43;10.13;;;;;;;8.68;57.06;94891.75;4970171;28;20089;-79
2020/12/21 08:15:12;;;;;;;12.32;9.23;;;;;;;8.74;56.66;94900.50;4974018;28;20480;-80
2020/12/21 08:17:38;;;;;;;20.42;11.85;;;;;;;8.75;57.14;94891.56;4986173;28;20061;-80
2020/12/21 08:20:15;;;;;;;18.48;12.25;;;;;;;8.82;57.62;94895.56;4986551;28;20033;-81
2020/12/21 08:22:42;;;;;;;16.33;11.52;;;;;;;8.82;57.48;94897.41;4984638;28;20038;-81
2020/12/21 08:25:14;;;;;;;15.18;11.63;;;;;;;8.83;57.58;94893.72;4985483;28;20089;-80
2020/12/21 08:27:50;;;;;;;17.00;10.95;;;;;;;8.84;57.26;94896.13;4983878;28;20046;-80
2020/12/21 08:30:17;;;;;;;18.75;11.68;;;;;;;8.84;56.64;94901.41;4977882;28;20055;-83
2020/12/21 08:32:43;;;;;;;23.40;14.25;;;;;;;8.81;56.04;94893.97;4970431;28;20043;-83
2020/12/21 08:35:09;;;;;;;15.95;10.90;;;;;;;8.78;56.18;94891.84;4985207;28;20027;-80
2020/12/21 08:37:36;;;;;;;32.17;25.83;;;;;;;8.74;56.51;94895.22;4984705;28;20049;-79
2020/12/21 08:40:15;;;;;;;14.82;10.68;;;;;;;8.79;56.00;94888.16;4984061;28;20038;-80
2020/12/21 08:42:42;;;;;;;19.75;12.63;;;;;;;8.74;56.33;94880.22;4982084;28;20134;-80
2020/12/21 08:45:09;;;;;;;17.40;11.88;;;;;;;8.76;56.33;94887.84;4978159;28;20109;-80
2020/12/21 08:47:35;;;;;;;18.50;12.82;;;;;;;8.84;56.01;94893.50;4969256;28;20491;-80
2020/12/21 08:50:02;;;;;;;16.95;11.18;;;;;;;8.86;56.02;94872.94;4983444;28;20026;-80
2020/12/21 08:52:28;;;;;;;17.70;12.52;;;;;;;8.89;56.04;94877.72;4964923;28;20541;-80
2020/12/21 08:54:53;;;;;;;15.35;10.80;;;;;;;8.92;56.72;94879.84;4977618;28;20054;-79
2020/12/21 08:57:19;;;;;;;19.63;13.23;;;;;;;8.89;56.30;94876.91;4984853;28;20069;-79
2020/12/21 08:59:44;;;;;;;16.08;12.18;;;;;;;8.79;55.59;94864.44;4983893;28;20069;-80
2020/12/21 09:02:10;;;;;;;18.63;13.13;;;;;;;8.82;55.56;94877.13;4984468;28;20117;-80
2020/12/21 09:04:35;;;;;;;19.77;14.80;;;;;;;8.82;55.97;94871.84;4984771;28;20046;-80
2020/12/21 09:07:03;;;;;;;17.98;11.77;;;;;;;8.70;57.24;94864.09;4981804;28;20042;-80
2020/12/21 09:09:37;;;;;;;16.35;12.48;;;;;;;8.68;57.20;94873.31;4980052;28;20043;-80
2020/12/21 09:12:21;;;;;;;19.17;12.20;;;;;;;8.64;57.31;94872.22;4986102;28;20038;-80
2020/12/21 09:14:52;;;;;;;19.42;11.55;;;;;;;8.75;56.81;94865.97;4986996;28;20042;-80
2020/12/21 09:17:23;;;;;;;16.23;12.48;;;;;;;8.76;56.53;94851.75;4985319;28;20034;-80
2020/12/21 09:19:49;;;;;;;17.13;12.30;;;;;;;8.76;56.95;94835.94;5002808;28;20021;-80
2020/12/21 09:22:14;;;;;;;16.17;11.88;;;;;;;9.03;56.86;94870.16;4986955;28;20038;-80
2020/12/21 09:24:49;;;;;;;17.15;12.23;;;;;;;9.08;56.11;94864.94;4986931;28;20038;-80
2020/12/21 09:27:24;;;;;;;18.67;13.63;;;;;;;9.11;55.70;94846.75;4981238;28;20402;-80
2020/12/21 09:29:52;;;;;;;16.20;12.90;;;;;;;9.22;55.68;94860.00;4980712;28;20042;-80
2020/12/21 09:32:21;;;;;;;18.13;13.85;;;;;;;9.27;55.54;94860.03;4966654;28;20065;-80
2020/12/21 09:35:05;;;;;;;25.73;19.52;;;;;;;9.34;55.62;94858.75;4988664;28;20556;-80
2020/12/21 09:37:30;;;;;;;22.60;14.35;;;;;;;9.36;55.78;94855.88;4968629;28;20047;-80
2020/12/21 09:39:56;;;;;;;20.65;14.27;;;;;;;9.37;55.75;94863.56;4979253;28;20057;-80
2020/12/21 09:42:21;;;;;;;20.40;16.13;;;;;;;9.18;55.78;94822.81;5000661;28;20553;-80
2020/12/21 09:44:49;;;;;;;20.15;14.80;;;;;;;9.39;55.14;94850.09;4986722;28;20038;-80
2020/12/21 09:47:15;;;;;;;25.42;19.13;;;;;;;9.44;55.36;94852.75;4999826;28;20422;-80
2020/12/21 09:49:41;;;;;;;24.85;17.70;;;;;;;9.46;55.50;94846.19;4987766;28;20022;-80
2020/12/21 09:52:07;;;;;;;24.45;15.88;;;;;;;9.53;55.17;94845.94;4987149;28;20491;-80
2020/12/21 09:54:32;;;;;;;26.48;18.10;;;;;;;9.54;55.38;94848.34;4986699;28;20045;-80
2020/12/21 09:56:58;;;;;;;25.77;15.18;;;;;;;9.46;55.44;94840.91;4986426;28;20042;-80
2020/12/21 09:59:23;;;;;;;23.58;15.73;;;;;;;9.50;55.15;94841.97;4984128;28;20033;-80
2020/12/21 10:01:50;;;;;;;22.35;16.27;;;;;;;9.42;55.66;94839.03;4967825;28;20031;-80
2020/12/21 10:04:15;;;;;;;24.48;16.58;;;;;;;9.33;55.78;94836.09;4984017;28;20049;-80
2020/12/21 10:06:47;;;;;;;36.72;19.83;;;;;;;9.40;55.73;94838.50;4983772;28;20042;-80
2020/12/21 10:09:12;;;;;;;22.05;16.23;;;;;;;9.31;56.00;94842.66;4981376;28;20049;-81
2020/12/21 10:11:38;;;;;;;25.85;16.98;;;;;;;9.34;55.72;94840.28;4987334;28;20039;-80
2020/12/21 10:14:03;;;;;;;26.80;17.20;;;;;;;9.20;56.03;94835.72;4986698;28;20057;-80
2020/12/21 10:16:28;;;;;;;24.65;18.55;;;;;;;9.05;56.01;94824.03;4968293;28;20042;-80
2020/12/21 10:18:54;;;;;;;37.95;21.90;;;;;;;9.21;56.34;94845.22;4978377;28;20057;-80
2020/12/21 10:21:19;;;;;;;23.63;17.00;;;;;;;9.24;56.34;94836.78;4984206;28;20042;-80
2020/12/21 10:23:45;;;;;;;28.38;20.42;;;;;;;9.25;55.56;94839.19;4984770;28;20553;-80
2020/12/21 10:26:10;;;;;;;34.25;22.10;;;;;;;9.27;55.73;94826.56;4987238;28;20037;-80
2020/12/21 10:28:36;;;;;;;32.13;21.58;;;;;;;9.29;56.26;94826.28;4985591;28;20043;-80
2020/12/21 10:31:02;;;;;;;42.67;24.85;;;;;;;9.35;55.94;94823.44;4986932;28;20069;-80
2020/12/21 10:33:27;;;;;;;40.35;26.33;;;;;;;9.25;56.04;94796.19;4982432;28;20042;-80
2020/12/21 10:35:52;;;;;;;30.48;20.92;;;;;;;9.34;56.32;94813.13;4986389;28;20054;-80
2020/12/21 10:38:18;;;;;;;28.27;19.10;;;;;;;9.32;56.39;94808.13;4984732;28;20018;-81
2020/12/21 10:40:44;;;;;;;34.85;22.75;;;;;;;9.36;56.77;94814.47;4967134;28;20026;-80
2020/12/21 10:43:09;;;;;;;29.50;19.73;;;;;;;9.40;56.33;94801.56;4981284;28;20192;-80
2020/12/21 10:45:35;;;;;;;30.70;21.48;;;;;;;9.50;56.08;94810.31;4985455;28;20117;-79
2020/12/21 10:48:00;;;;;;;30.35;19.40;;;;;;;9.48;56.65;94801.84;4987402;28;20046;-79
2020/12/21 10:50:25;;;;;;;25.20;19.10;;;;;;;9.38;55.80;94790.47;4984740;28;20027;-80
2020/12/21 10:52:51;;;;;;;36.28;20.70;;;;;;;9.36;55.42;94787.28;4985840;28;20041;-80
2020/12/21 10:55:16;;;;;;;25.60;18.17;;;;;;;9.40;54.93;94791.78;4986873;28;20081;-80
2020/12/21 10:57:42;;;;;;;45.30;23.27;;;;;;;9.44;55.03;94798.13;4983765;28;20467;-80
2020/12/21 11:00:07;;;;;;;30.73;21.90;;;;;;;9.51;55.26;94796.06;4984783;28;20089;-80
2020/12/21 11:02:33;;;;;;;32.63;22.35;;;;;;;9.55;54.63;94796.34;4984515;28;20057;-80
2020/12/21 11:04:59;;;;;;;38.03;25.83;;;;;;;9.62;54.70;94799.56;4986730;28;20158;-80
2020/12/21 11:07:25;;;;;;;31.30;23.42;;;;;;;9.65;54.93;94801.69;4985378;28;20379;-80
2020/12/21 11:09:50;;;;;;;36.20;24.42;;;;;;;9.53;54.70;94788.69;4980487;28;20137;-80
2020/12/21 11:12:17;;;;;;;37.47;26.48;;;;;;;9.65;54.45;94812.22;4983712;28;20522;-80
2020/12/21 11:14:43;;;;;;;41.15;26.10;;;;;;;9.59;54.72;94805.34;4984773;28;20070;-80
2020/12/21 11:17:08;;;;;;;40.38;26.77;;;;;;;9.58;54.89;94811.66;4984758;28;20023;-80
2020/12/21 11:19:34;;;;;;;51.17;34.95;;;;;;;9.56;54.36;94797.94;4985633;28;20042;-80
2020/12/21 11:21:59;;;;;;;45.83;27.88;;;;;;;9.57;54.98;94804.81;4962841;28;20039;-80
2020/12/21 11:24:27;;;;;;;45.33;28.77;;;;;;;9.56;54.95;94795.31;4988443;28;20046;-80
2020/12/21 11:26:53;;;;;;;39.97;27.70;;;;;;;9.58;55.15;94798.47;4984002;28;20491;-81